Aérodrome :
LOGIN :

S'inscrire | Disclaimer

   EN    FR    IT 

 










Légende :    VFR   VFR Marginal   IFR   IFR Intensif   IFR Très Intensif
Visi : 
Plafond : 
>= 8 km
>= 3000ft
5 à 8 km
1000 à 3000 ft
1500m à 5 km
500 à 1000 ft
800 à 1500m
200 à 500 ft
< 800m
< 200 ft
Symboles :   Orages  Brouillard  Fortes neiges  Fortes précipitations  Vent > 20 kt
SIGMETs :   Divers  Orages  Givrage  Turbulence  Onde Orograph.  Cendres Volcan.






- Altitude de l'aérodrome : 1568 ft


ETSB - Büchel AB

DERNIER METAR :
  • 031920Z AUTO 21001KT 9999 // ////// 19/10 Q1002 ///

METARs EXPIRÉS :
  • 031820Z AUTO 16002KT 9999 // ////// 20/09 Q1002 ///
  • 031720Z AUTO 15002KT 9999 // ////// 21/09 Q1002 ///

TAF TAF ETSB
Valide du 03 à 14h jusqu'au 03 à 23h UTC


031320Z 0314/0323 31005G15KT 9999 NSW FEW050 SCT120
TEMPO 0314/0323 25010G20KT 7000 SHRA SCT050CB
PROB30 0314/0323 VRB15G30KT 5000 TSRA FEW030 BKN050CB BY ETGL



MET'MAP, la Météo Aéronautique d'un coup d'oeil ! - Copyright ORBIFLY Décembre 2007 - Disclaimer

ORBIFLY MET'MAP TEAM :

Programmation & Développement : Alexandra Zaïnal
Sur une idée originale de : Baudouin d'Aumeries
Assistance à la programmation : Marc-Olivier Méhu
Soutien technique & logistique : Manuel Goepfert

Contact : metmap@orbifly.com




SOURCES & CREDITS :

   NOAA